Time;durP1;ratioP1;P1;durP2;ratioP2;P2;SDS_P1;SDS_P2;PMS_P1;PMS_P2;Temp;Humidity;BMP_temperature;BMP_pressure;BME280_temperature;BME280_humidity;BME280_pressure;Samples;Min_cycle;Max_cycle;Signal;HPM_P1;HPM_P2
2022/04/21 00:00:43;;;;;;;3.00;2.72;;;9.50;99.90;;;;;;5008403;28;20541;-71
2022/04/21 00:03:09;;;;;;;7.85;3.10;;;9.50;99.90;;;;;;5009347;28;20044;-72
2022/04/21 00:05:36;;;;;;;3.97;3.13;;;9.50;99.90;;;;;;5010163;28;20021;-71
2022/04/21 00:08:02;;;;;;;3.15;2.85;;;9.40;99.90;;;;;;5008722;28;20036;-72
2022/04/21 00:10:28;;;;;;;4.85;3.17;;;9.40;99.90;;;;;;5007999;28;20040;-71
2022/04/21 00:12:55;;;;;;;9.40;3.13;;;9.40;99.90;;;;;;5009135;28;20056;-71
2022/04/21 00:15:22;;;;;;;8.25;2.90;;;9.40;99.90;;;;;;5009314;28;20018;-72
2022/04/21 00:17:47;;;;;;;3.15;2.47;;;9.50;99.90;;;;;;5007211;28;20022;-72
2022/04/21 00:20:14;;;;;;;4.70;2.85;;;9.40;99.90;;;;;;5007667;28;20493;-73
2022/04/21 00:25:27;;;;;;;5.47;3.13;;;9.40;99.90;;;;;;5009160;28;20504;-71
2022/04/21 00:27:54;;;;;;;3.90;3.30;;;9.40;99.90;;;;;;5010916;28;20504;-72
2022/04/21 00:30:21;;;;;;;4.82;3.30;;;9.40;99.90;;;;;;5008143;28;20034;-71
2022/04/21 00:32:47;;;;;;;7.93;3.15;;;9.30;99.90;;;;;;5008921;28;20037;-71
2022/04/21 00:35:14;;;;;;;4.35;3.08;;;9.30;99.90;;;;;;5007666;28;20450;-71
2022/04/21 00:37:54;;;;;;;3.65;3.10;;;9.30;99.90;;;;;;5008889;28;20034;-70
2022/04/21 00:40:21;;;;;;;3.08;2.80;;;9.30;99.90;;;;;;5007697;28;20025;-71
2022/04/21 00:42:48;;;;;;;4.07;3.22;;;9.30;99.90;;;;;;5010247;28;20022;-71
2022/04/21 00:45:14;;;;;;;5.65;2.90;;;9.30;99.90;;;;;;5010603;28;20585;-71
2022/04/21 00:47:43;;;;;;;6.22;3.00;;;9.30;99.90;;;;;;5001738;28;20026;-71
2022/04/21 00:50:30;;;;;;;4.22;2.67;;;9.30;99.90;;;;;;5005393;28;20030;-75
2022/04/21 00:52:57;;;;;;;3.47;2.97;;;9.30;99.90;;;;;;5009840;28;20026;-70
2022/04/21 00:55:23;;;;;;;3.58;2.67;;;9.30;99.90;;;;;;5000496;28;20509;-71
2022/04/21 00:57:51;;;;;;;3.90;2.83;;;9.40;99.90;;;;;;5007426;28;20040;-71
2022/04/21 01:00:17;;;;;;;7.50;2.90;;;9.40;99.90;;;;;;5006467;28;20029;-73
2022/04/21 01:02:49;;;;;;;6.95;3.22;;;9.30;99.90;;;;;;5008797;28;20456;-71
2022/04/21 01:05:32;;;;;;;5.23;2.97;;;9.30;99.90;;;;;;5009347;28;20037;-70
2022/04/21 01:08:05;;;;;;;4.00;3.47;;;9.30;99.90;;;;;;5007720;28;20373;-73
2022/04/21 01:10:35;;;;;;;3.30;2.35;;;9.30;99.90;;;;;;5002438;28;20131;-70
2022/04/21 01:13:04;;;;;;;8.88;2.78;;;9.30;99.90;;;;;;5002754;28;20206;-72
2022/04/21 01:15:29;;;;;;;7.50;2.58;;;9.20;99.90;;;;;;5006891;28;20026;-71
2022/04/21 01:17:55;;;;;;;19.25;3.97;;;9.20;99.90;;;;;;5007375;28;20079;-72
2022/04/21 01:20:22;;;;;;;3.20;2.60;;;9.20;99.90;;;;;;5007336;28;20038;-71
2022/04/21 01:22:49;;;;;;;3.35;3.05;;;9.20;99.90;;;;;;5007729;28;20033;-73
2022/04/21 01:25:15;;;;;;;4.43;2.55;;;9.30;99.90;;;;;;5006181;28;20030;-72
2022/04/21 01:27:42;;;;;;;4.15;2.85;;;9.30;99.90;;;;;;5009024;28;20438;-72
2022/04/21 01:30:10;;;;;;;7.78;2.58;;;9.20;99.90;;;;;;5007545;28;20033;-73
2022/04/21 01:32:36;;;;;;;10.05;2.90;;;9.10;99.90;;;;;;5006802;28;20038;-70
2022/04/21 01:35:08;;;;;;;3.67;2.63;;;9.00;99.90;;;;;;5006134;28;20125;-72
2022/04/21 01:43:15;;;;;;;11.65;2.53;;;9.10;99.90;;;;;;5008982;28;20524;-71
2022/04/21 01:45:42;;;;;;;3.80;2.60;;;9.20;99.90;;;;;;5005204;28;20125;-72
2022/04/21 01:48:08;;;;;;;4.25;2.90;;;9.20;99.90;;;;;;5006059;28;20033;-73
2022/04/21 01:50:33;;;;;;;3.85;2.33;;;9.20;99.90;;;;;;5006145;28;20030;-72
2022/04/21 01:52:59;;;;;;;3.92;2.47;;;9.10;99.90;;;;;;5009094;28;20033;-72
2022/04/21 01:55:26;;;;;;;4.88;2.65;;;9.10;99.90;;;;;;5005903;28;20072;-72
2022/04/21 01:57:52;;;;;;;3.75;2.80;;;9.10;99.90;;;;;;4994781;28;20026;-72
2022/04/21 02:00:27;;;;;;;5.30;2.45;;;9.10;99.90;;;;;;5004332;28;20336;-73
2022/04/21 02:02:54;;;;;;;4.00;3.25;;;9.20;99.90;;;;;;5006818;28;20052;-71
2022/04/21 02:05:29;;;;;;;5.68;3.08;;;9.30;99.90;;;;;;5006482;28;22015;-72
2022/04/21 02:07:55;;;;;;;3.40;2.70;;;9.20;99.90;;;;;;5006854;28;20104;-73
2022/04/21 02:10:24;;;;;;;2.97;2.30;;;9.20;99.90;;;;;;5011735;28;20482;-71
2022/04/21 02:12:50;;;;;;;5.65;3.10;;;9.20;99.90;;;;;;5013456;28;20030;-71
2022/04/21 02:15:19;;;;;;;3.80;2.95;;;9.20;99.90;;;;;;5011791;28;20018;-71
2022/04/21 02:17:46;;;;;;;7.22;2.78;;;9.20;99.90;;;;;;5012442;28;20072;-73
2022/04/21 02:20:16;;;;;;;3.35;3.05;;;9.10;99.90;;;;;;5010507;28;20105;-72
2022/04/21 02:22:45;;;;;;;3.63;2.45;;;9.10;99.90;;;;;;5012821;28;20022;-72
2022/04/21 02:25:13;;;;;;;3.50;3.20;;;9.10;99.90;;;;;;5009228;28;20125;-71
2022/04/21 02:27:41;;;;;;;3.35;3.05;;;9.10;99.90;;;;;;5011257;28;20375;-71
2022/04/21 02:30:08;;;;;;;3.08;2.65;;;9.00;99.90;;;;;;5010755;28;20463;-71
2022/04/21 02:32:35;;;;;;;3.08;2.70;;;9.00;99.90;;;;;;5010623;28;20033;-72
2022/04/21 02:35:02;;;;;;;7.15;2.85;;;8.90;99.90;;;;;;5008039;28;20208;-72
2022/04/21 02:37:34;;;;;;;3.22;2.30;;;9.00;99.90;;;;;;5008850;28;20478;-72
2022/04/21 02:39:59;;;;;;;2.75;2.55;;;9.00;99.90;;;;;;5007832;28;20030;-71
2022/04/21 02:42:25;;;;;;;5.82;2.80;;;9.00;99.90;;;;;;5012681;28;20032;-71
2022/04/21 02:44:51;;;;;;;4.05;3.03;;;9.10;99.90;;;;;;5011083;28;20037;-71
2022/04/21 02:47:17;;;;;;;5.13;3.65;;;9.00;99.90;;;;;;5008602;28;20033;-71
2022/04/21 02:49:47;;;;;;;6.32;2.95;;;9.00;99.90;;;;;;5016856;28;20026;-71
2022/04/21 02:52:13;;;;;;;3.80;3.10;;;8.90;99.90;;;;;;5019467;28;20033;-73
2022/04/21 02:57:26;;;;;;;3.13;2.80;;;8.90;99.90;;;;;;5016753;28;20113;-72
2022/04/21 02:59:56;;;;;;;3.50;3.03;;;8.90;99.90;;;;;;5007671;28;20034;-72
2022/04/21 03:02:23;;;;;;;5.20;2.85;;;8.90;99.90;;;;;;5002504;28;20084;-72
2022/04/21 03:04:51;;;;;;;6.18;3.22;;;9.00;99.90;;;;;;5004166;28;20478;-71
2022/04/21 03:07:17;;;;;;;4.10;3.25;;;9.00;99.90;;;;;;5008683;28;20022;-73
2022/04/21 03:09:44;;;;;;;3.08;2.78;;;9.00;99.90;;;;;;5010563;28;20022;-72
2022/04/21 03:12:10;;;;;;;5.28;4.05;;;9.00;99.90;;;;;;5012384;28;20029;-73
2022/04/21 03:14:40;;;;;;;3.13;2.58;;;9.10;99.90;;;;;;5007346;28;20053;-73
2022/04/21 03:17:08;;;;;;;3.88;2.42;;;9.10;99.90;;;;;;5006562;28;20026;-75
2022/04/21 03:19:35;;;;;;;4.55;3.05;;;9.10;99.90;;;;;;5007659;28;20534;-72
2022/04/21 03:24:46;;;;;;;9.18;3.38;;;9.20;99.90;;;;;;5011559;28;20072;-71
2022/04/21 03:27:12;;;;;;;3.38;2.80;;;9.10;99.90;;;;;;5007468;28;20467;-72
2022/04/21 03:29:38;;;;;;;5.90;2.95;;;9.10;99.90;;;;;;5010506;28;20104;-71
2022/04/21 03:32:13;;;;;;;5.78;2.72;;;9.10;99.90;;;;;;5008795;28;20026;-72
2022/04/21 03:34:42;;;;;;;5.30;3.13;;;9.10;99.90;;;;;;5008757;28;20556;-73
2022/04/21 03:37:10;;;;;;;3.55;2.95;;;9.00;99.90;;;;;;5008447;28;20029;-72
2022/04/21 03:39:36;;;;;;;4.20;2.55;;;9.00;99.90;;;;;;5011699;28;20018;-72
2022/04/21 03:42:04;;;;;;;3.38;3.03;;;9.00;99.90;;;;;;5012021;28;20092;-72
2022/04/21 03:44:30;;;;;;;3.75;2.55;;;9.00;99.90;;;;;;5010330;28;20037;-74
2022/04/21 03:46:58;;;;;;;7.05;3.00;;;8.90;99.90;;;;;;5005262;28;20490;-73
2022/04/21 03:49:28;;;;;;;7.25;4.28;;;8.90;99.90;;;;;;5010703;28;20043;-73
2022/04/21 03:51:55;;;;;;;3.72;2.97;;;9.00;99.90;;;;;;5011772;28;20037;-72
2022/04/21 03:54:22;;;;;;;7.72;3.58;;;9.00;99.90;;;;;;5011471;28;20477;-73
2022/04/21 03:56:49;;;;;;;8.82;3.53;;;8.90;99.90;;;;;;5007671;28;20051;-72
2022/04/21 03:59:15;;;;;;;9.82;4.05;;;8.90;99.90;;;;;;5007649;28;20026;-71
2022/04/21 04:01:41;;;;;;;4.55;3.42;;;8.90;99.90;;;;;;5008510;28;20100;-71
2022/04/21 04:04:07;;;;;;;10.88;5.78;;;9.00;99.90;;;;;;5011188;28;20093;-71
2022/04/21 04:12:03;;;;;;;5.03;3.05;;;9.10;99.90;;;;;;5007734;28;20040;-72
2022/04/21 04:14:29;;;;;;;6.32;3.42;;;9.20;99.90;;;;;;5009680;28;20108;-71
2022/04/21 04:16:55;;;;;;;7.13;3.13;;;9.30;99.90;;;;;;5009819;28;20454;-73
2022/04/21 04:19:21;;;;;;;4.43;3.30;;;9.30;99.90;;;;;;5008138;28;20079;-71
2022/04/21 04:21:47;;;;;;;2.88;2.67;;;9.20;99.90;;;;;;5010345;28;20021;-72
2022/04/21 04:24:13;;;;;;;7.75;3.53;;;9.30;99.90;;;;;;5008699;28;20135;-72
2022/04/21 04:26:38;;;;;;;6.05;3.00;;;9.30;99.90;;;;;;5010390;28;20084;-71
2022/04/21 04:29:05;;;;;;;9.00;3.28;;;9.30;99.90;;;;;;5008909;28;20030;-71
2022/04/21 04:31:32;;;;;;;4.10;3.13;;;9.40;99.90;;;;;;5007366;28;20033;-72
2022/04/21 04:33:57;;;;;;;3.85;3.28;;;9.50;99.90;;;;;;5008829;28;20022;-73
2022/04/21 04:36:23;;;;;;;5.13;3.45;;;9.70;99.90;;;;;;5008908;28;20029;-71
2022/04/21 04:38:49;;;;;;;7.30;4.07;;;9.60;99.90;;;;;;5010926;28;20025;-72
2022/04/21 04:44:01;;;;;;;5.82;3.40;;;9.60;99.90;;;;;;5007431;28;20044;-75
2022/04/21 04:46:35;;;;;;;5.72;3.30;;;9.50;99.90;;;;;;5008274;28;20053;-72
2022/04/21 04:49:02;;;;;;;2.95;2.67;;;9.60;99.90;;;;;;5006629;28;20068;-72
2022/04/21 04:51:28;;;;;;;3.25;2.95;;;9.60;99.90;;;;;;5010193;28;20022;-70
2022/04/21 04:53:54;;;;;;;10.52;3.10;;;9.70;99.90;;;;;;5008677;28;20018;-72
2022/04/21 04:56:24;;;;;;;3.15;2.80;;;9.70;99.90;;;;;;5005820;28;20470;-72
2022/04/21 04:58:51;;;;;;;6.72;3.10;;;9.80;99.90;;;;;;5008249;28;20057;-71
2022/04/21 05:01:26;;;;;;;6.80;3.80;;;9.80;99.90;;;;;;5010758;28;20041;-71
2022/04/21 05:04:00;;;;;;;5.70;2.95;;;9.90;99.90;;;;;;5007843;28;20042;-73
2022/04/21 05:06:26;;;;;;;7.80;3.40;;;9.90;99.90;;;;;;5007083;28;20091;-71
2022/04/21 05:08:51;;;;;;;5.07;3.78;;;9.90;99.90;;;;;;5010807;28;20490;-72
2022/04/21 05:11:17;;;;;;;5.22;3.88;;;10.10;99.90;;;;;;5010913;28;20208;-72
2022/04/21 05:13:44;;;;;;;5.18;3.75;;;10.00;99.90;;;;;;5003104;28;20030;-73
2022/04/21 05:16:10;;;;;;;4.30;3.33;;;10.10;99.90;;;;;;5005534;28;20021;-72
2022/04/21 05:18:36;;;;;;;9.52;3.75;;;10.10;99.90;;;;;;5009804;28;20018;-71
2022/04/21 05:21:02;;;;;;;4.25;3.85;;;10.00;99.90;;;;;;5009974;28;20030;-71
2022/04/21 05:23:34;;;;;;;7.18;4.07;;;10.10;99.90;;;;;;5008476;28;20100;-72
2022/04/21 05:26:00;;;;;;;7.82;3.28;;;10.10;99.90;;;;;;5005535;28;20030;-74
2022/04/21 05:28:27;;;;;;;6.05;3.42;;;10.20;99.90;;;;;;5002574;28;20030;-72
2022/04/21 05:30:55;;;;;;;6.05;3.53;;;10.30;99.90;;;;;;5010030;28;20030;-74
2022/04/21 05:33:30;;;;;;;5.45;3.78;;;10.30;99.90;;;;;;5008646;28;20034;-74
2022/04/21 05:35:58;;;;;;;6.13;3.20;;;10.30;99.90;;;;;;5010769;28;20033;-73
2022/04/21 05:38:25;;;;;;;4.65;4.22;;;10.30;99.90;;;;;;5012109;28;20029;-72
2022/04/21 05:40:52;;;;;;;4.05;3.45;;;10.40;99.90;;;;;;5012014;28;20528;-72
2022/04/21 05:43:19;;;;;;;6.85;4.15;;;10.40;99.90;;;;;;5010148;28;20030;-73
2022/04/21 05:45:46;;;;;;;15.88;6.40;;;10.50;99.90;;;;;;5010915;28;20044;-71
2022/04/21 05:48:15;;;;;;;8.93;4.22;;;10.50;99.90;;;;;;5013020;28;20040;-72
2022/04/21 05:50:48;;;;;;;20.45;3.65;;;10.60;99.90;;;;;;5011818;28;20517;-74
2022/04/21 05:53:22;;;;;;;5.43;3.45;;;10.70;99.90;;;;;;5010286;28;20076;-74
2022/04/21 05:55:49;;;;;;;6.63;3.95;;;10.90;99.90;;;;;;5010205;28;20051;-73
2022/04/21 05:58:15;;;;;;;6.53;3.92;;;10.90;99.90;;;;;;5015549;28;20566;-71
2022/04/21 06:00:40;;;;;;;10.18;4.05;;;11.10;99.90;;;;;;5013537;28;20100;-72
2022/04/21 06:03:07;;;;;;;6.70;3.58;;;11.10;99.90;;;;;;5012332;28;20489;-72
2022/04/21 06:05:33;;;;;;;4.82;4.20;;;11.40;99.90;;;;;;5013701;28;20198;-71
2022/04/21 06:07:58;;;;;;;17.60;3.58;;;11.60;99.90;;;;;;5008601;28;20033;-74
2022/04/21 06:10:24;;;;;;;7.75;3.67;;;11.60;99.90;;;;;;5013589;28;20445;-72
2022/04/21 06:12:50;;;;;;;6.63;4.60;;;11.70;99.90;;;;;;5016266;28;20026;-72
2022/04/21 06:15:16;;;;;;;6.40;4.30;;;11.70;99.90;;;;;;5018227;28;20026;-71
2022/04/21 06:17:42;;;;;;;10.73;3.55;;;11.70;99.90;;;;;;5019159;28;20074;-72
2022/04/21 06:20:09;;;;;;;8.18;3.45;;;11.80;99.90;;;;;;5012018;28;20029;-71
2022/04/21 06:22:35;;;;;;;5.20;4.13;;;12.10;99.90;;;;;;5009891;28;20018;-72
2022/04/21 06:25:01;;;;;;;4.00;3.67;;;12.40;99.90;;;;;;5009291;28;20075;-72
2022/04/21 06:27:27;;;;;;;6.18;3.50;;;12.40;99.90;;;;;;5011253;28;20125;-72
2022/04/21 06:29:52;;;;;;;4.50;4.10;;;12.50;99.90;;;;;;5010103;28;20490;-72
2022/04/21 06:32:18;;;;;;;5.65;3.50;;;12.70;99.90;;;;;;5006591;28;20049;-73
2022/04/21 06:34:44;;;;;;;8.77;3.15;;;12.80;99.90;;;;;;5008441;28;20026;-72
2022/04/21 06:37:10;;;;;;;6.28;3.50;;;12.70;99.90;;;;;;5009781;28;20112;-71
2022/04/21 06:39:36;;;;;;;6.47;3.35;;;12.90;99.90;;;;;;5014165;28;20025;-71
2022/04/21 06:42:02;;;;;;;7.85;3.47;;;13.10;99.90;;;;;;5010675;28;20028;-73
2022/04/21 06:49:56;;;;;;;3.65;3.20;;;13.50;99.90;;;;;;5012744;28;20037;-72
2022/04/21 06:52:21;;;;;;;3.45;2.85;;;13.50;99.90;;;;;;5010422;28;20366;-71
2022/04/21 06:54:47;;;;;;;6.25;3.05;;;13.60;99.90;;;;;;5012270;28;20025;-72
2022/04/21 06:57:13;;;;;;;5.07;2.90;;;13.50;99.90;;;;;;5010175;28;21891;-70
2022/04/21 06:59:39;;;;;;;8.23;3.53;;;13.20;99.90;;;;;;5011096;28;20109;-70
2022/04/21 07:02:06;;;;;;;5.20;3.20;;;13.10;99.90;;;;;;5006250;28;20116;-71
2022/04/21 07:04:32;;;;;;;5.88;3.30;;;13.10;99.90;;;;;;5007049;28;20117;-72
2022/04/21 07:06:57;;;;;;;9.90;4.00;;;13.10;99.90;;;;;;5009677;28;20681;-73
2022/04/21 07:09:23;;;;;;;4.47;2.85;;;13.10;99.90;;;;;;5012560;28;20033;-72
2022/04/21 07:11:49;;;;;;;4.10;3.13;;;13.10;99.90;;;;;;5008827;28;20037;-71
2022/04/21 07:14:15;;;;;;;8.82;3.28;;;13.20;99.90;;;;;;5011806;28;20400;-69
2022/04/21 07:16:40;;;;;;;5.90;3.38;;;13.30;99.90;;;;;;5007079;28;20403;-71
2022/04/21 07:19:06;;;;;;;11.07;2.92;;;13.40;99.90;;;;;;5010775;28;20112;-70
2022/04/21 07:21:32;;;;;;;8.20;3.50;;;13.60;99.90;;;;;;5012087;28;20084;-71
2022/04/21 07:23:58;;;;;;;5.97;3.40;;;13.60;99.90;;;;;;5009789;28;20483;-71
2022/04/21 07:26:23;;;;;;;5.45;2.72;;;13.70;99.90;;;;;;5010665;28;20022;-73
2022/04/21 07:28:49;;;;;;;5.55;3.15;;;13.80;99.90;;;;;;5012110;28;20026;-72
2022/04/21 07:31:15;;;;;;;10.00;3.17;;;13.90;99.90;;;;;;5009007;28;20037;-72
2022/04/21 07:33:41;;;;;;;4.47;2.47;;;14.00;99.90;;;;;;5012306;28;20493;-74
2022/04/21 07:36:07;;;;;;;5.22;2.92;;;14.00;99.90;;;;;;5010341;28;20045;-72
2022/04/21 07:38:34;;;;;;;11.93;3.92;;;14.10;99.90;;;;;;5006209;28;20406;-73
2022/04/21 07:41:01;;;;;;;10.68;3.33;;;14.10;99.90;;;;;;5009712;28;20390;-72
2022/04/21 07:43:26;;;;;;;5.85;3.35;;;14.20;99.90;;;;;;5014463;28;20109;-72
2022/04/21 07:45:52;;;;;;;5.93;2.80;;;14.40;99.90;;;;;;5012228;28;20456;-71
2022/04/21 07:48:18;;;;;;;4.90;3.22;;;14.30;99.90;;;;;;5013037;28;20065;-73
2022/04/21 07:50:44;;;;;;;3.58;3.05;;;14.40;99.90;;;;;;5011135;28;20084;-72
2022/04/21 07:53:18;;;;;;;10.75;3.53;;;14.50;99.90;;;;;;5012764;28;20036;-71
2022/04/21 07:55:46;;;;;;;6.97;3.03;;;14.60;99.90;;;;;;5009887;28;20101;-72
2022/04/21 07:58:13;;;;;;;9.55;3.72;;;14.60;99.90;;;;;;5010510;28;20022;-72
2022/04/21 08:00:40;;;;;;;6.00;2.85;;;14.80;99.90;;;;;;5013752;28;20281;-72
2022/04/21 08:03:37;;;;;;;8.35;3.38;;;14.70;99.90;;;;;;5004637;28;20053;-74
2022/04/21 08:06:06;;;;;;;6.38;3.00;;;14.70;99.90;;;;;;5007674;28;20033;-71
2022/04/21 08:08:32;;;;;;;8.45;2.63;;;14.90;99.90;;;;;;5011098;28;20048;-71
2022/04/21 08:10:59;;;;;;;4.38;2.95;;;15.00;99.90;;;;;;5010025;28;20132;-72
2022/04/21 08:13:29;;;;;;;8.05;2.45;;;15.20;99.90;;;;;;5007986;28;20509;-74
2022/04/21 08:15:54;;;;;;;5.07;3.15;;;15.20;99.90;;;;;;5011231;28;20022;-74
2022/04/21 08:18:20;;;;;;;7.50;2.90;;;15.40;99.90;;;;;;5002141;28;20045;-71
2022/04/21 08:20:48;;;;;;;5.80;2.65;;;15.60;99.90;;;;;;5001352;28;20052;-73
2022/04/21 08:23:14;;;;;;;11.93;2.92;;;15.80;99.90;;;;;;5006030;28;20025;-73
2022/04/21 08:33:52;;;;;;;5.10;3.13;;;16.30;99.90;;;;;;5009912;28;20037;-74
2022/04/21 08:36:18;;;;;;;9.93;3.00;;;16.50;99.90;;;;;;5009333;28;20017;-73
2022/04/21 08:38:43;;;;;;;8.40;3.15;;;16.50;99.90;;;;;;5009372;28;20053;-73
2022/04/21 08:41:17;;;;;;;5.20;2.53;;;16.40;99.90;;;;;;5009921;28;20442;-70
2022/04/21 08:43:46;;;;;;;4.30;2.58;;;16.20;99.90;;;;;;5009352;28;20037;-71
2022/04/21 08:46:20;;;;;;;3.78;3.28;;;16.40;99.90;;;;;;5010700;28;20037;-71
2022/04/21 08:48:50;;;;;;;9.38;3.95;;;16.40;99.90;;;;;;5008132;28;20033;-70
2022/04/21 08:51:16;;;;;;;8.40;4.35;;;16.20;99.90;;;;;;5008000;28;20394;-71
2022/04/21 08:53:42;;;;;;;9.98;3.10;;;16.00;99.90;;;;;;5010076;28;20026;-71
2022/04/21 08:56:10;;;;;;;5.13;2.95;;;16.10;99.90;;;;;;5010373;28;20014;-69
2022/04/21 08:58:36;;;;;;;6.72;3.67;;;16.20;99.90;;;;;;5009379;28;20073;-69
2022/04/21 09:01:02;;;;;;;8.00;3.83;;;16.30;99.90;;;;;;5009763;28;20029;-70
2022/04/21 09:03:27;;;;;;;8.90;3.08;;;16.40;99.90;;;;;;5008604;28;20030;-73
2022/04/21 09:05:53;;;;;;;5.93;2.95;;;16.50;99.90;;;;;;5009011;28;20021;-73
2022/04/21 09:08:20;;;;;;;14.48;3.85;;;16.30;99.90;;;;;;5008411;28;20093;-72
2022/04/21 09:10:47;;;;;;;12.90;3.47;;;16.30;99.90;;;;;;5005769;28;20033;-74
2022/04/21 09:13:13;;;;;;;9.00;4.22;;;16.10;99.90;;;;;;5006009;28;20171;-75
2022/04/21 09:15:43;;;;;;;6.15;3.83;;;15.90;99.90;;;;;;5010351;28;20026;-74
2022/04/21 09:18:11;;;;;;;3.55;2.97;;;15.80;99.90;;;;;;5008630;28;20018;-71
2022/04/21 09:20:39;;;;;;;13.27;3.58;;;15.80;99.90;;;;;;5007923;28;20022;-72
2022/04/21 09:23:07;;;;;;;7.93;3.72;;;15.80;99.90;;;;;;5006035;28;20061;-72
2022/04/21 09:25:46;;;;;;;9.07;3.38;;;15.70;99.90;;;;;;5015798;28;20428;-71
2022/04/21 09:28:22;;;;;;;3.95;3.50;;;15.60;99.90;;;;;;5031102;28;20023;-71
2022/04/21 09:30:51;;;;;;;14.13;3.03;;;15.60;99.90;;;;;;4993285;28;20030;-71
2022/04/21 09:33:30;;;;;;;14.18;4.10;;;15.60;99.90;;;;;;4995259;28;20080;-74
2022/04/21 09:35:57;;;;;;;11.57;5.00;;;15.40;99.90;;;;;;5015335;28;20014;-74
2022/04/21 09:38:23;;;;;;;10.45;3.85;;;15.30;99.90;;;;;;5010294;28;20033;-71
2022/04/21 09:40:49;;;;;;;12.50;5.20;;;15.10;99.90;;;;;;5010397;28;20029;-72
2022/04/21 09:43:29;;;;;;;7.80;4.50;;;15.00;99.90;;;;;;5008770;28;20038;-72
2022/04/21 09:46:10;;;;;;;9.48;5.05;;;14.70;99.90;;;;;;5007847;28;20053;-72
2022/04/21 09:48:36;;;;;;;7.88;4.75;;;14.60;99.90;;;;;;5010280;28;20117;-71
2022/04/21 09:51:10;;;;;;;10.60;6.70;;;14.60;99.90;;;;;;5011222;28;20034;-72
2022/04/21 09:53:54;;;;;;;15.27;7.03;;;14.60;99.90;;;;;;5010884;28;20015;-71
2022/04/21 09:56:33;;;;;;;8.40;3.95;;;14.70;99.90;;;;;;5009859;28;20026;-71
2022/04/21 09:59:04;;;;;;;8.95;4.00;;;14.70;99.90;;;;;;5005203;28;20105;-72
2022/04/21 10:01:30;;;;;;;8.18;3.65;;;14.80;99.90;;;;;;5009595;28;20117;-73
2022/04/21 10:03:57;;;;;;;4.93;3.67;;;14.70;99.90;;;;;;5008752;28;20026;-73
2022/04/21 10:06:23;;;;;;;5.18;3.65;;;14.70;99.90;;;;;;5007727;28;20029;-71
2022/04/21 10:08:51;;;;;;;4.53;2.90;;;14.70;99.90;;;;;;5009683;28;20096;-72
2022/04/21 10:11:23;;;;;;;6.15;3.28;;;14.70;99.90;;;;;;5009022;28;20030;-71
2022/04/21 10:13:54;;;;;;;3.25;2.60;;;14.70;99.90;;;;;;5007432;28;20119;-74
2022/04/21 10:16:24;;;;;;;4.88;3.17;;;14.70;99.90;;;;;;5007807;28;20060;-72
2022/04/21 10:18:54;;;;;;;3.90;2.47;;;14.60;99.90;;;;;;5010403;28;20033;-71
2022/04/21 10:21:26;;;;;;;9.75;3.35;;;14.50;99.90;;;;;;5009050;28;20039;-72
2022/04/21 10:23:52;;;;;;;11.63;3.15;;;14.40;99.90;;;;;;5012882;28;20071;-72
2022/04/21 10:26:39;;;;;;;12.25;3.58;;;14.50;99.90;;;;;;5011598;28;20030;-71
2022/04/21 10:29:19;;;;;;;6.75;3.03;;;14.50;99.90;;;;;;5011874;28;20022;-71
2022/04/21 10:31:54;;;;;;;4.30;2.28;;;14.60;99.90;;;;;;5010478;28;20033;-72
2022/04/21 10:34:40;;;;;;;2.70;2.50;;;14.50;99.90;;;;;;5013862;28;20029;-71
2022/04/21 10:37:19;;;;;;;3.03;2.78;;;14.40;99.90;;;;;;5013243;28;20022;-71
2022/04/21 10:40:01;;;;;;;3.25;2.60;;;14.40;99.90;;;;;;5014072;28;20022;-72
2022/04/21 10:42:27;;;;;;;6.70;4.00;;;14.30;99.90;;;;;;5012044;28;20053;-72
2022/04/21 10:44:54;;;;;;;13.25;4.65;;;14.40;99.90;;;;;;5012636;28;20061;-72
2022/04/21 10:47:39;;;;;;;5.75;2.92;;;14.40;99.90;;;;;;5011631;28;20022;-72
2022/04/21 10:50:13;;;;;;;8.68;2.67;;;14.30;99.90;;;;;;5016353;28;20022;-75
2022/04/21 10:57:57;;;;;;;3.13;2.55;;;14.30;99.90;;;;;;5012783;28;20037;-75
2022/04/21 11:00:25;;;;;;;3.35;2.15;;;14.20;99.90;;;;;;5013095;28;20401;-76
2022/04/21 11:03:08;;;;;;;6.38;2.95;;;14.10;99.90;;;;;;5008785;28;20088;-74
2022/04/21 11:05:38;;;;;;;6.82;2.65;;;14.00;99.90;;;;;;5007703;28;20057;-75
2022/04/21 11:08:11;;;;;;;3.03;2.75;;;14.00;99.90;;;;;;5007919;28;20065;-75
2022/04/21 11:10:37;;;;;;;4.55;2.70;;;14.00;99.90;;;;;;5007605;28;20038;-75
2022/04/21 11:13:06;;;;;;;12.95;3.58;;;14.00;99.90;;;;;;5008302;28;20064;-74
2022/04/21 11:15:40;;;;;;;6.40;3.33;;;14.10;99.90;;;;;;5006963;28;20417;-73
2022/04/21 11:18:11;;;;;;;6.13;2.92;;;14.10;99.90;;;;;;5010930;28;20033;-74
2022/04/21 11:20:40;;;;;;;7.35;2.55;;;14.20;99.90;;;;;;5006234;28;20025;-74
2022/04/21 11:23:10;;;;;;;16.27;4.05;;;14.10;99.90;;;;;;5013970;28;20084;-74
2022/04/21 11:25:36;;;;;;;8.68;2.65;;;14.10;99.90;;;;;;5009662;28;20045;-74
2022/04/21 11:28:03;;;;;;;7.40;2.80;;;14.20;99.90;;;;;;5012401;28;20026;-74
2022/04/21 11:30:32;;;;;;;3.10;2.80;;;14.30;99.90;;;;;;5008815;28;20026;-75
2022/04/21 11:32:59;;;;;;;9.20;3.28;;;14.40;99.90;;;;;;5006310;28;20030;-74
2022/04/21 11:35:25;;;;;;;5.35;3.25;;;14.40;99.90;;;;;;5009216;28;20019;-73
2022/04/21 11:37:59;;;;;;;11.95;3.65;;;14.50;99.90;;;;;;5010701;28;20034;-73
2022/04/21 11:40:39;;;;;;;3.45;2.97;;;14.40;99.90;;;;;;5011549;28;20074;-72
2022/04/21 11:43:19;;;;;;;6.70;3.40;;;14.50;99.90;;;;;;5011776;28;20018;-74
2022/04/21 11:45:55;;;;;;;8.80;4.13;;;14.50;99.90;;;;;;5009806;28;20160;-73
2022/04/21 11:48:26;;;;;;;4.65;3.05;;;14.70;99.90;;;;;;5011946;28;20111;-74
2022/04/21 11:50:53;;;;;;;3.65;2.92;;;14.50;99.90;;;;;;5010484;28;20494;-74
2022/04/21 11:53:20;;;;;;;6.65;3.13;;;14.50;99.90;;;;;;5010514;28;20108;-74
2022/04/21 11:55:49;;;;;;;8.35;3.75;;;14.50;99.90;;;;;;5010386;28;20474;-74
2022/04/21 11:58:36;;;;;;;6.63;3.78;;;14.50;99.90;;;;;;5012140;28;20112;-73
2022/04/21 12:06:48;;;;;;;9.05;3.72;;;14.50;99.90;;;;;;5010080;28;20040;-73
2022/04/21 12:09:15;;;;;;;6.32;4.50;;;14.40;99.90;;;;;;5007688;28;20410;-73
2022/04/21 12:11:42;;;;;;;10.60;5.82;;;14.20;99.90;;;;;;5011806;28;20022;-70
2022/04/21 12:14:08;;;;;;;7.47;5.60;;;14.10;99.90;;;;;;5009574;28;20026;-73
2022/04/21 12:16:53;;;;;;;7.88;7.13;;;14.20;99.90;;;;;;5011521;28;20029;-74
2022/04/21 12:19:25;;;;;;;12.68;8.65;;;14.30;99.90;;;;;;5015717;28;20034;-72
2022/04/21 12:22:01;;;;;;;14.38;7.78;;;14.30;99.90;;;;;;5017930;28;20049;-74
2022/04/21 12:24:32;;;;;;;10.55;8.35;;;14.50;99.90;;;;;;5006019;28;20029;-75
2022/04/21 12:27:00;;;;;;;7.18;6.45;;;14.60;99.90;;;;;;5018803;28;20053;-73
2022/04/21 12:29:29;;;;;;;11.30;7.32;;;14.60;99.90;;;;;;5022922;28;20030;-73
2022/04/21 12:31:56;;;;;;;7.93;6.43;;;14.40;99.90;;;;;;5022533;28;20026;-74
2022/04/21 12:34:28;;;;;;;9.18;5.93;;;14.20;99.90;;;;;;5023312;28;20032;-73
2022/04/21 12:37:05;;;;;;;10.18;6.00;;;14.20;99.90;;;;;;5020402;28;20089;-73
2022/04/21 12:39:31;;;;;;;12.63;5.60;;;14.30;99.90;;;;;;5019184;28;20028;-74
2022/04/21 12:41:57;;;;;;;7.50;5.55;;;14.30;99.90;;;;;;5020492;28;20475;-73
2022/04/21 12:44:25;;;;;;;8.63;4.95;;;14.20;99.90;;;;;;5022972;28;20502;-74
2022/04/21 12:47:12;;;;;;;8.98;5.32;;;14.20;99.90;;;;;;5021173;28;20025;-74
2022/04/21 12:49:56;;;;;;;8.30;4.95;;;14.10;99.90;;;;;;5018229;28;20030;-73
2022/04/21 12:52:36;;;;;;;6.95;4.47;;;14.20;99.90;;;;;;5014291;28;20138;-74
2022/04/21 12:55:20;;;;;;;7.45;4.43;;;14.40;99.90;;;;;;5014436;28;20169;-73
2022/04/21 12:58:06;;;;;;;7.07;4.43;;;14.40;99.90;;;;;;5008515;28;20045;-72
2022/04/21 13:00:33;;;;;;;7.43;4.63;;;14.70;99.90;;;;;;5008919;28;20443;-74
2022/04/21 13:03:02;;;;;;;6.50;4.10;;;14.80;99.90;;;;;;5007949;28;20057;-73
2022/04/21 13:05:29;;;;;;;6.07;3.45;;;15.00;99.90;;;;;;5011772;28;20018;-74
2022/04/21 13:07:54;;;;;;;7.47;3.67;;;15.10;99.90;;;;;;5011472;28;20389;-73
2022/04/21 13:10:21;;;;;;;4.03;3.72;;;15.10;99.90;;;;;;5009173;28;20095;-74
2022/04/21 13:12:47;;;;;;;5.95;3.75;;;15.10;99.90;;;;;;5013441;28;20024;-73
2022/04/21 13:15:13;;;;;;;5.68;4.13;;;15.40;99.90;;;;;;5013632;28;20104;-74
2022/04/21 13:17:42;;;;;;;8.65;3.03;;;15.40;99.90;;;;;;5009752;28;20519;-72
2022/04/21 13:20:09;;;;;;;6.60;2.80;;;15.50;99.90;;;;;;5010248;28;20029;-75
2022/04/21 13:22:35;;;;;;;6.60;2.97;;;15.30;99.90;;;;;;5006250;28;20040;-74
2022/04/21 13:25:02;;;;;;;3.58;3.05;;;15.20;99.90;;;;;;5007258;28;20033;-74
2022/04/21 13:27:29;;;;;;;3.53;2.90;;;15.10;99.90;;;;;;5010956;28;20029;-74
2022/04/21 13:29:55;;;;;;;3.30;2.53;;;15.00;99.90;;;;;;5016817;28;20088;-74
2022/04/21 13:35:07;;;;;;;5.15;3.83;;;14.70;99.90;;;;;;5004266;28;20389;-76
2022/04/21 13:37:33;;;;;;;4.65;3.92;;;14.70;99.90;;;;;;5006751;28;20029;-76
2022/04/21 13:39:58;;;;;;;5.03;3.30;;;14.70;99.90;;;;;;5008547;28;20557;-73
2022/04/21 13:42:24;;;;;;;4.90;2.67;;;14.50;99.90;;;;;;5006127;28;20084;-73
2022/04/21 13:44:51;;;;;;;3.72;2.35;;;14.60;99.90;;;;;;5004132;28;20030;-73
2022/04/21 13:47:18;;;;;;;5.00;3.03;;;14.60;99.90;;;;;;5002132;28;20026;-74